createdAt,value
2022-08-05T00:01:36.534Z,99662.59
2022-08-05T00:04:17.805Z,99654.22
2022-08-05T00:06:47.041Z,99668.78
2022-08-05T00:09:19.571Z,99573.34
2022-08-05T00:11:55.744Z,99555.50
2022-08-05T00:14:29.180Z,99565.34
2022-08-05T00:16:57.970Z,99555.69
2022-08-05T00:19:33.646Z,99571.47
2022-08-05T00:22:11.267Z,99540.94
2022-08-05T00:24:42.336Z,99558.56
2022-08-05T00:27:16.751Z,99658.94
2022-08-05T00:29:44.998Z,99630.81
2022-08-05T00:32:15.427Z,99618.28
2022-08-05T00:35:05.780Z,99654.63
2022-08-05T00:37:35.428Z,99536.84
2022-08-05T00:40:17.965Z,99651.50
2022-08-05T00:42:56.218Z,99539.00
2022-08-05T00:45:27.992Z,99613.75
2022-08-05T00:48:05.617Z,99546.78
2022-08-05T00:50:34.185Z,99560.38
2022-08-05T00:53:02.276Z,99539.25
2022-08-05T00:55:34.057Z,99624.84
2022-08-05T00:58:11.288Z,99509.22
2022-08-05T01:00:40.722Z,99541.50
2022-08-05T01:03:22.222Z,99547.28
2022-08-05T01:05:51.479Z,99506.22
2022-08-05T01:08:40.930Z,99643.72
2022-08-05T01:11:13.762Z,99645.34
2022-08-05T01:13:57.866Z,99641.66
2022-08-05T01:16:34.973Z,99536.56
2022-08-05T01:19:14.278Z,99500.03
2022-08-05T01:22:23.896Z,99572.91
2022-08-05T01:25:39.933Z,99562.84
2022-08-05T01:28:27.919Z,99416.78
2022-08-05T01:31:05.926Z,99585.44
2022-08-05T01:33:41.198Z,99524.84
2022-08-05T01:36:16.176Z,99620.53
2022-08-05T01:38:48.616Z,99641.03
2022-08-05T01:41:25.576Z,99647.59
2022-08-05T01:43:57.027Z,99649.25
2022-08-05T01:46:42.560Z,99559.13
2022-08-05T01:49:24.780Z,99633.00
2022-08-05T01:51:58.663Z,99605.94
2022-08-05T01:54:31.642Z,99508.94
2022-08-05T01:58:12.153Z,99535.59
2022-08-05T01:59:53.878Z,99584.84
2022-08-05T02:02:26.046Z,99543.84
2022-08-05T02:05:00.381Z,99641.38
2022-08-05T02:07:30.487Z,99641.47
2022-08-05T02:09:59.028Z,99641.09
2022-08-05T02:12:38.544Z,99612.25
2022-08-05T02:15:13.877Z,99622.38
2022-08-05T02:18:28.274Z,99648.00
2022-08-05T02:20:47.644Z,99550.28
2022-08-05T02:23:23.698Z,99537.22
2022-08-05T02:25:53.510Z,99533.09
2022-08-05T02:28:28.874Z,99642.78
2022-08-05T02:31:04.121Z,99538.00
2022-08-05T02:33:38.783Z,99544.09
2022-08-05T02:36:13.590Z,99614.59
2022-08-05T02:38:53.680Z,99642.66
2022-08-05T02:41:28.834Z,99580.97
2022-08-05T02:44:12.473Z,99625.41
2022-08-05T02:46:58.540Z,99601.16
2022-08-05T02:49:36.723Z,99611.78
2022-08-05T02:52:08.836Z,99537.75
2022-08-05T02:54:41.265Z,99556.22
2022-08-05T02:58:09.247Z,99593.91
2022-08-05T03:00:03.472Z,99646.88
2022-08-05T03:02:36.567Z,99648.63
2022-08-05T03:05:06.315Z,99639.22
2022-08-05T03:07:59.413Z,99644.16
2022-08-05T03:10:25.169Z,99565.00
2022-08-05T03:12:55.083Z,99643.50
2022-08-05T03:15:24.304Z,99641.88
2022-08-05T03:17:57.695Z,99621.34
2022-08-05T03:20:26.686Z,99549.38
2022-08-05T03:22:57.533Z,99562.13
2022-08-05T03:25:32.659Z,99646.63
2022-08-05T03:28:03.995Z,99645.59
2022-08-05T03:30:34.338Z,99565.34
2022-08-05T03:33:07.236Z,99505.88
2022-08-05T03:35:40.865Z,99568.47
2022-08-05T03:38:11.915Z,99649.16
2022-08-05T03:40:45.228Z,99542.03
2022-08-05T03:44:09.366Z,99650.81
2022-08-05T03:46:08.325Z,99646.50
2022-08-05T03:48:37.921Z,99654.78
2022-08-05T03:52:49.352Z,99646.63
2022-08-05T03:55:52.639Z,99654.59
2022-08-05T03:56:58.898Z,99549.50
2022-08-05T03:59:54.311Z,99656.94
2022-08-05T04:02:38.456Z,99656.91
2022-08-05T04:05:11.201Z,99586.16
2022-08-05T04:07:58.104Z,99557.56
2022-08-05T04:10:28.437Z,99453.34
2022-08-05T04:13:00.428Z,99539.16
2022-08-05T04:15:33.362Z,99626.69
2022-08-05T04:18:07.421Z,99608.31
2022-08-05T04:20:41.176Z,99632.28
2022-08-05T04:23:12.330Z,99546.84
2022-08-05T04:25:57.478Z,99533.00
2022-08-05T04:28:30.993Z,99617.38
2022-08-05T04:31:00.990Z,99537.81
2022-08-05T04:34:17.953Z,99497.50
2022-08-05T04:36:44.648Z,99632.28
2022-08-05T04:39:08.389Z,99625.06
2022-08-05T04:41:37.301Z,99542.28
2022-08-05T04:44:08.933Z,99631.47
2022-08-05T04:46:38.787Z,99561.41
2022-08-05T04:49:12.157Z,99601.53
2022-08-05T04:51:44.655Z,99600.66
2022-08-05T04:54:14.684Z,99635.66
2022-08-05T04:56:43.537Z,99594.41
2022-08-05T04:59:13.993Z,99639.50
2022-08-05T05:02:07.981Z,99639.22
2022-08-05T05:04:47.768Z,99529.81
2022-08-05T05:07:17.448Z,99602.72
2022-08-05T05:09:46.128Z,99515.69
2022-08-05T05:12:14.984Z,99586.38
2022-08-05T05:14:49.375Z,99623.16
2022-08-05T05:17:23.683Z,99614.31
2022-08-05T05:19:56.663Z,99594.50
2022-08-05T05:22:26.992Z,99616.94
2022-08-05T05:24:56.852Z,99627.28
2022-08-05T05:27:41.600Z,99592.78
2022-08-05T05:30:28.893Z,99630.09
2022-08-05T05:33:09.069Z,99623.13
2022-08-05T05:35:44.719Z,99580.28
2022-08-05T05:38:14.962Z,99623.78
2022-08-05T05:40:51.851Z,99500.69
2022-08-05T05:43:27.863Z,99568.00
2022-08-05T05:46:15.659Z,99625.88
2022-08-05T05:48:45.951Z,99602.69
2022-08-05T05:51:20.001Z,99636.09
2022-08-05T05:53:58.234Z,99539.91
2022-08-05T05:56:32.765Z,99599.50
2022-08-05T05:59:05.676Z,99629.97
2022-08-05T06:01:37.783Z,99484.19
2022-08-05T06:04:08.171Z,99631.88
2022-08-05T06:06:36.686Z,99618.31
2022-08-05T06:09:07.665Z,99548.31
2022-08-05T06:11:39.227Z,99537.88
2022-08-05T06:14:07.462Z,99490.53
2022-08-05T06:16:36.841Z,99522.94
2022-08-05T06:19:07.452Z,99636.09
2022-08-05T06:21:38.687Z,99627.50
2022-08-05T06:24:12.775Z,99628.50
2022-08-05T06:26:51.277Z,99610.56
2022-08-05T06:29:24.681Z,99536.31
2022-08-05T06:32:25.531Z,99601.03
2022-08-05T06:34:57.801Z,99453.88
2022-08-05T06:37:56.202Z,99599.75
2022-08-05T06:40:20.879Z,99580.22
2022-08-05T06:42:52.126Z,99575.06
2022-08-05T06:45:44.705Z,99524.31
2022-08-05T06:48:47.304Z,99620.06
2022-08-05T06:51:00.166Z,99552.53
2022-08-05T06:53:29.306Z,99619.31
2022-08-05T06:56:00.280Z,99627.38
2022-08-05T06:58:36.081Z,99622.66
2022-08-05T07:01:06.878Z,99581.50
2022-08-05T07:03:36.247Z,99624.59
2022-08-05T07:06:05.766Z,99593.28
2022-08-05T07:08:47.783Z,99633.38
2022-08-05T07:11:22.360Z,99593.19
2022-08-05T07:14:20.116Z,99625.94
2022-08-05T07:17:58.595Z,99624.50
2022-08-05T07:22:37.401Z,99619.88
2022-08-05T07:25:54.251Z,99620.53
2022-08-05T07:28:02.338Z,99607.66
2022-08-05T07:30:38.877Z,99612.00
2022-08-05T07:33:09.886Z,99590.50
2022-08-05T07:36:01.994Z,99621.00
2022-08-05T07:38:33.357Z,99609.75
2022-08-05T07:41:35.215Z,99618.88
2022-08-05T07:43:55.135Z,99604.41
2022-08-05T07:46:26.408Z,99602.88
2022-08-05T07:49:02.476Z,99598.31
2022-08-05T07:51:40.679Z,99610.00
2022-08-05T07:54:18.854Z,99591.56
2022-08-05T07:57:14.772Z,99606.84
2022-08-05T07:59:39.962Z,99602.16
2022-08-05T08:02:15.291Z,99602.28
2022-08-05T08:04:46.923Z,99578.09
2022-08-05T08:07:15.567Z,99602.50
2022-08-05T08:09:44.036Z,99595.28
2022-08-05T08:12:33.627Z,99597.22
2022-08-05T08:15:04.411Z,99577.16
2022-08-05T08:17:33.241Z,99600.38
2022-08-05T08:20:23.440Z,99599.38
2022-08-05T08:22:55.819Z,99603.25
2022-08-05T08:25:26.499Z,99582.84
2022-08-05T08:27:55.232Z,99581.13
2022-08-05T08:30:32.549Z,99587.97
2022-08-05T08:33:09.150Z,99597.28
2022-08-05T08:35:53.896Z,99591.56
2022-08-05T08:38:36.083Z,99591.03
2022-08-05T08:41:08.273Z,99584.34
2022-08-05T08:45:17.714Z,99569.19
2022-08-05T08:46:30.514Z,99572.84
2022-08-05T08:49:08.320Z,99539.59
2022-08-05T08:52:03.049Z,99569.56
2022-08-05T08:54:36.210Z,99570.44
2022-08-05T08:57:11.331Z,99528.13
2022-08-05T08:59:41.857Z,99544.38
2022-08-05T09:02:19.094Z,99556.41
2022-08-05T09:05:16.857Z,99442.69
2022-08-05T09:07:56.017Z,99558.44
2022-08-05T09:10:26.982Z,99505.94
2022-08-05T09:12:56.911Z,99533.97
2022-08-05T09:15:32.656Z,99539.81
2022-08-05T09:18:08.946Z,99542.63
2022-08-05T09:20:38.047Z,99521.75
2022-08-05T09:23:18.562Z,99532.84
2022-08-05T09:26:02.468Z,99535.31
2022-08-05T09:28:34.033Z,99524.59
2022-08-05T09:31:23.530Z,99522.22
2022-08-05T09:33:59.041Z,99519.31
2022-08-05T09:36:55.350Z,99495.38
2022-08-05T09:39:39.563Z,99444.59
2022-08-05T09:42:23.335Z,99489.91
2022-08-05T09:44:56.763Z,99430.63
2022-08-05T09:47:48.335Z,99513.81
2022-08-05T09:50:38.670Z,99503.25
2022-08-05T09:53:12.024Z,99502.22
2022-08-05T09:56:04.947Z,99493.09
2022-08-05T09:58:41.855Z,99487.16
2022-08-05T10:01:14.944Z,99497.72
2022-08-05T10:03:59.338Z,99401.63
2022-08-05T10:06:31.098Z,99495.47
2022-08-05T10:09:24.947Z,99469.00
2022-08-05T10:11:55.443Z,99452.34
2022-08-05T10:14:26.709Z,99482.78
2022-08-05T10:16:57.192Z,99486.63
2022-08-05T10:19:31.860Z,99431.13
2022-08-05T10:22:29.921Z,99503.97
2022-08-05T10:24:59.063Z,99408.16
2022-08-05T10:28:09.255Z,99476.06
2022-08-05T10:31:20.988Z,99481.72
2022-08-05T10:33:14.705Z,99472.28
2022-08-05T10:35:44.283Z,99471.44
2022-08-05T10:38:14.894Z,99431.91
2022-08-05T10:40:57.825Z,99466.03
2022-08-05T10:43:36.778Z,99386.50
2022-08-05T10:46:09.480Z,99454.44
2022-08-05T10:48:56.445Z,99433.88
2022-08-05T10:51:29.003Z,99427.88
2022-08-05T10:54:05.642Z,99448.50
2022-08-05T10:56:52.880Z,99433.59
2022-08-05T11:00:03.436Z,99429.53
2022-08-05T11:02:37.508Z,99430.88
2022-08-05T11:05:07.026Z,99397.06
2022-08-05T11:08:03.126Z,99351.34
2022-08-05T11:10:27.538Z,99431.34
2022-08-05T11:12:56.588Z,99412.66
2022-08-05T11:16:00.824Z,99388.63
2022-08-05T11:18:30.080Z,99421.28
2022-08-05T11:21:02.173Z,99385.63
2022-08-05T11:24:03.031Z,99415.34
2022-08-05T11:26:32.099Z,99398.91
2022-08-05T11:29:11.489Z,99407.47
2022-08-05T11:31:54.460Z,99408.69
2022-08-05T11:34:38.794Z,99339.47
2022-08-05T11:38:29.210Z,99327.22
2022-08-05T11:40:02.898Z,99411.09
2022-08-05T11:42:37.762Z,99385.94
2022-08-05T11:45:23.229Z,99382.19
2022-08-05T11:47:58.643Z,99373.19
2022-08-05T11:50:27.783Z,99381.03
2022-08-05T11:52:58.451Z,99390.03
2022-08-05T11:55:32.121Z,99396.09
2022-08-05T11:58:09.969Z,99389.81
2022-08-05T12:00:41.350Z,99393.34
2022-08-05T12:03:24.089Z,99386.84
2022-08-05T12:06:01.005Z,99378.22
2022-08-05T12:08:31.320Z,99284.25
2022-08-05T12:11:05.663Z,99375.47
2022-08-05T12:13:48.375Z,99376.47
2022-08-05T12:16:25.432Z,99377.44
2022-08-05T12:18:55.698Z,99366.75
2022-08-05T12:21:26.943Z,99311.81
2022-08-05T12:24:05.121Z,99281.91
2022-08-05T12:26:35.471Z,99355.59
2022-08-05T12:29:09.449Z,99365.31
2022-08-05T12:31:49.743Z,99356.63
2022-08-05T12:34:25.711Z,99353.59
2022-08-05T12:36:55.641Z,99174.50
2022-08-05T12:39:34.259Z,99348.88
2022-08-05T12:42:03.583Z,99321.53
2022-08-05T12:44:34.369Z,99290.63
2022-08-05T12:47:03.838Z,99266.34
2022-08-05T12:50:01.954Z,99265.22
2022-08-05T12:52:37.746Z,99323.50
2022-08-05T12:55:22.118Z,99337.56
2022-08-05T12:58:52.341Z,99318.94
2022-08-05T13:02:01.313Z,99319.94
2022-08-05T13:03:42.202Z,99307.91
2022-08-05T13:06:15.903Z,99326.06
2022-08-05T13:08:51.620Z,99314.78
2022-08-05T13:11:25.604Z,99328.09
2022-08-05T13:14:25.122Z,99320.03
2022-08-05T13:17:10.587Z,99312.47
2022-08-05T13:19:52.454Z,99309.34
2022-08-05T13:22:28.234Z,99310.97
2022-08-05T13:25:05.111Z,99247.91
2022-08-05T13:27:38.733Z,99285.88
2022-08-05T13:30:33.835Z,99317.97
2022-08-05T13:33:01.113Z,99300.69
2022-08-05T13:35:42.437Z,99284.22
2022-08-05T13:38:28.271Z,99209.41
2022-08-05T13:40:59.885Z,99305.75
2022-08-05T13:43:45.305Z,99255.38
2022-08-05T13:46:35.814Z,99232.25
2022-08-05T13:49:11.553Z,99270.38
2022-08-05T13:51:46.148Z,99286.88
2022-08-05T13:54:16.065Z,99289.97
2022-08-05T13:56:51.169Z,99287.09
2022-08-05T13:59:24.186Z,99280.31
2022-08-05T14:01:56.515Z,99265.16
2022-08-05T14:05:00.656Z,99221.69
2022-08-05T14:08:00.953Z,99256.22
2022-08-05T14:10:28.853Z,99244.41
2022-08-05T14:12:59.754Z,99269.31
2022-08-05T14:16:06.853Z,99236.75
2022-08-05T14:18:18.159Z,99261.13
2022-08-05T14:20:49.019Z,99258.63
2022-08-05T14:23:24.663Z,99199.59
2022-08-05T14:25:54.629Z,99203.69
2022-08-05T14:28:28.137Z,99149.44
2022-08-05T14:30:56.347Z,99266.00
2022-08-05T14:33:24.453Z,99258.09
2022-08-05T14:35:54.886Z,99254.47
2022-08-05T14:38:33.365Z,99209.63
2022-08-05T14:41:07.751Z,99248.59
2022-08-05T14:43:59.606Z,99101.38
2022-08-05T14:46:29.168Z,99158.16
2022-08-05T14:49:06.949Z,99235.09
2022-08-05T14:51:38.848Z,99241.81
2022-08-05T14:54:28.818Z,99223.59
2022-08-05T14:56:59.282Z,99221.78
2022-08-05T14:59:29.717Z,99212.41
2022-08-05T15:02:03.945Z,99170.59
2022-08-05T15:04:44.913Z,99230.97
2022-08-05T15:08:09.053Z,99239.25
2022-08-05T15:10:05.566Z,99238.31
2022-08-05T15:12:59.778Z,99232.97
2022-08-05T15:15:54.561Z,99231.28
2022-08-05T15:18:14.672Z,99237.88
2022-08-05T15:20:45.095Z,99240.19
2022-08-05T15:23:15.736Z,99222.13
2022-08-05T15:25:53.772Z,99231.03
2022-08-05T15:28:27.852Z,99237.81
2022-08-05T15:30:56.504Z,99229.47
2022-08-05T15:34:05.345Z,99229.53
2022-08-05T15:36:17.617Z,99222.38
2022-08-05T15:40:58.613Z,99221.91
2022-08-05T15:41:58.564Z,99224.19
2022-08-05T15:44:27.690Z,99221.59
2022-08-05T15:46:55.996Z,99227.88
2022-08-05T15:49:43.267Z,99220.25
2022-08-05T15:52:29.206Z,99197.03
2022-08-05T15:55:03.674Z,99200.31
2022-08-05T15:57:33.096Z,99187.06
2022-08-05T16:00:03.018Z,99191.13
2022-08-05T16:02:31.285Z,99218.13
2022-08-05T16:04:59.586Z,99217.06
2022-08-05T16:07:29.502Z,99197.31
2022-08-05T16:09:57.852Z,99210.03
2022-08-05T16:12:27.398Z,99191.69
2022-08-05T16:14:55.546Z,99208.72
2022-08-05T16:17:24.412Z,99213.31
2022-08-05T16:20:04.421Z,99200.03
2022-08-05T16:22:34.787Z,99199.72
2022-08-05T16:25:05.418Z,99208.28
2022-08-05T16:28:00.179Z,99213.88
2022-08-05T16:30:28.761Z,99196.88
2022-08-05T16:32:57.565Z,99182.28
2022-08-05T16:35:28.355Z,99187.63
2022-08-05T16:38:16.174Z,99205.41
2022-08-05T16:40:55.303Z,99203.06
2022-08-05T16:43:26.462Z,99157.56
2022-08-05T16:46:04.178Z,99211.28
2022-08-05T16:48:38.463Z,99201.66
2022-08-05T16:51:09.702Z,99171.19
2022-08-05T16:54:03.437Z,99208.47
2022-08-05T16:56:29.729Z,99197.16
2022-08-05T16:59:00.738Z,99222.59
2022-08-05T17:01:31.811Z,99230.19
2022-08-05T17:04:18.797Z,99174.84
2022-08-05T17:06:53.413Z,99228.06
2022-08-05T17:09:23.132Z,99234.56
2022-08-05T17:11:54.761Z,99213.75
2022-08-05T17:14:36.971Z,99232.97
2022-08-05T17:17:14.280Z,99233.50
2022-08-05T17:19:45.242Z,99187.34
2022-08-05T17:22:24.819Z,99241.41
2022-08-05T17:24:57.730Z,99245.97
2022-08-05T17:27:27.499Z,99247.59
2022-08-05T17:30:12.036Z,99217.84
2022-08-05T17:32:47.216Z,99236.50
2022-08-05T17:35:20.980Z,99242.47
2022-08-05T17:37:50.635Z,99192.47
2022-08-05T17:40:22.543Z,99246.78
2022-08-05T17:42:52.953Z,99209.75
2022-08-05T17:45:38.099Z,99257.06
2022-08-05T17:48:08.254Z,99267.56
2022-08-05T17:50:36.762Z,99237.06
2022-08-05T17:53:08.374Z,99254.34
2022-08-05T17:55:39.501Z,99260.81
2022-08-05T17:58:13.576Z,99164.03
2022-08-05T18:00:50.646Z,99266.47
2022-08-05T18:03:48.375Z,99270.25
2022-08-05T18:06:12.142Z,99249.91
2022-08-05T18:08:45.925Z,99285.91
2022-08-05T18:11:24.199Z,99255.03
2022-08-05T18:14:01.040Z,99295.59
2022-08-05T18:16:34.384Z,99258.94
2022-08-05T18:19:04.075Z,99291.91
2022-08-05T18:22:09.323Z,99218.84
2022-08-05T18:24:20.979Z,99256.16
2022-08-05T18:26:49.352Z,99284.59
2022-08-05T18:29:17.375Z,99301.56
2022-08-05T18:32:13.048Z,99286.69
2022-08-05T18:34:42.815Z,99196.78
2022-08-05T18:37:12.639Z,99208.97
2022-08-05T18:40:34.477Z,99303.97
2022-08-05T18:42:33.340Z,99302.34
2022-08-05T18:45:01.418Z,99303.69
2022-08-05T18:47:31.056Z,99217.50
2022-08-05T18:50:19.717Z,99304.88
2022-08-05T18:52:51.225Z,99134.84
2022-08-05T18:55:21.463Z,99305.91
2022-08-05T18:57:53.312Z,99259.59
2022-08-05T19:00:27.062Z,99226.78
2022-08-05T19:03:03.327Z,99240.38
2022-08-05T19:06:11.363Z,99306.13
2022-08-05T19:08:21.510Z,99232.34
2022-08-05T19:10:49.941Z,99314.19
2022-08-05T19:13:19.818Z,99282.50
2022-08-05T19:15:59.791Z,99273.78
2022-08-05T19:18:33.075Z,99237.69
2022-08-05T19:21:01.567Z,99262.28
2022-08-05T19:24:07.340Z,99311.84
2022-08-05T19:26:22.458Z,99310.16
2022-08-05T19:28:50.551Z,99262.09
2022-08-05T19:31:21.379Z,99303.16
2022-08-05T19:33:56.513Z,99288.53
2022-08-05T19:36:25.671Z,99313.31
2022-08-05T19:39:00.584Z,99299.31
2022-08-05T19:42:06.459Z,99325.00
2022-08-05T19:44:18.829Z,99272.97
2022-08-05T19:46:47.461Z,99332.81
2022-08-05T19:49:19.807Z,99260.38
2022-08-05T19:52:05.976Z,99221.94
2022-08-05T19:54:37.209Z,99315.28
2022-08-05T19:57:09.522Z,99214.72
2022-08-05T20:00:00.619Z,99324.38
2022-08-05T20:02:31.303Z,99310.88
2022-08-05T20:05:01.024Z,99326.69
2022-08-05T20:07:38.935Z,99323.56
2022-08-05T20:10:16.943Z,99317.88
2022-08-05T20:12:45.964Z,99301.50
2022-08-05T20:15:48.652Z,99221.97
2022-08-05T20:18:10.413Z,99326.78
2022-08-05T20:21:00.033Z,99316.34
2022-08-05T20:23:39.324Z,99247.88
2022-08-05T20:26:18.106Z,99278.31
2022-08-05T20:28:48.715Z,99298.88
2022-08-05T20:31:21.598Z,99237.25
2022-08-05T20:33:57.062Z,99331.81
2022-08-05T20:36:26.861Z,99321.22
2022-08-05T20:38:57.938Z,99168.06
2022-08-05T20:41:43.825Z,99211.47
2022-08-05T20:44:18.617Z,99299.25
2022-08-05T20:46:59.281Z,99291.31
2022-08-05T20:49:27.862Z,99323.03
2022-08-05T20:51:58.284Z,99326.50
2022-08-05T20:54:43.648Z,99314.28
2022-08-05T20:57:24.537Z,99289.84
2022-08-05T21:00:19.638Z,99328.28
2022-08-05T21:02:57.851Z,99239.25
2022-08-05T21:05:28.569Z,99329.78
2022-08-05T21:08:15.822Z,99298.09
2022-08-05T21:10:49.042Z,99297.38
2022-08-05T21:13:26.090Z,99227.66
2022-08-05T21:15:55.431Z,99307.47
2022-08-05T21:18:23.649Z,99300.31
2022-08-05T21:20:51.867Z,99256.75
2022-08-05T21:23:22.390Z,99334.25
2022-08-05T21:25:51.161Z,99255.69
2022-08-05T21:28:23.926Z,99338.31
2022-08-05T21:30:58.865Z,99244.72
2022-08-05T21:33:37.067Z,99334.47
2022-08-05T21:36:08.705Z,99338.53
2022-08-05T21:38:40.576Z,99244.91
2022-08-05T21:41:09.555Z,99255.91
2022-08-05T21:43:41.659Z,99334.59
2022-08-05T21:46:11.865Z,99263.59
2022-08-05T21:48:40.500Z,99333.44
2022-08-05T21:52:15.339Z,99337.75
2022-08-05T21:54:03.614Z,99245.97
2022-08-05T21:56:32.134Z,99263.72
2022-08-05T21:59:01.438Z,99164.88
2022-08-05T22:01:36.245Z,99293.31
2022-08-05T22:04:04.592Z,99323.94
2022-08-05T22:06:35.078Z,99322.78
2022-08-05T22:09:15.102Z,99309.66
2022-08-05T22:11:49.024Z,99323.28
2022-08-05T22:14:33.349Z,99320.25
2022-08-05T22:17:03.970Z,99321.31
2022-08-05T22:20:01.791Z,99323.97
2022-08-05T22:22:27.577Z,99302.63
2022-08-05T22:25:21.247Z,99298.84
2022-08-05T22:28:08.706Z,99303.22
2022-08-05T22:30:55.459Z,99292.38
2022-08-05T22:33:58.464Z,99326.47
2022-08-05T22:36:14.733Z,99300.53
2022-08-05T22:38:48.588Z,99330.06
2022-08-05T22:42:04.820Z,99322.31
2022-08-05T22:44:08.337Z,99273.13
2022-08-05T22:46:39.393Z,99333.13
2022-08-05T22:49:12.065Z,99328.06
2022-08-05T22:52:07.645Z,99338.31
2022-08-05T22:54:28.454Z,99336.47
2022-08-05T22:56:58.158Z,99307.59
2022-08-05T22:59:45.247Z,99337.91
2022-08-05T23:02:16.918Z,99312.72
2022-08-05T23:04:52.306Z,99305.72
2022-08-05T23:07:23.150Z,99314.97
2022-08-05T23:09:57.494Z,99249.03
2022-08-05T23:12:32.875Z,99343.19
2022-08-05T23:15:03.195Z,99301.06
2022-08-05T23:17:34.555Z,99330.56
2022-08-05T23:20:16.410Z,99361.22
2022-08-05T23:22:47.215Z,99174.69
2022-08-05T23:25:17.008Z,99343.59
2022-08-05T23:28:07.554Z,99332.28
2022-08-05T23:30:40.499Z,99358.00
2022-08-05T23:33:22.554Z,99223.47
2022-08-05T23:35:56.414Z,99348.44
2022-08-05T23:38:26.725Z,99312.00
2022-08-05T23:40:54.971Z,99349.72
2022-08-05T23:44:04.614Z,99270.34
2022-08-05T23:46:19.971Z,99355.34
2022-08-05T23:49:00.746Z,99265.81
2022-08-05T23:51:53.309Z,99361.97
2022-08-05T23:54:25.595Z,99293.22
2022-08-05T23:57:03.184Z,99314.81
